sensor_id;sensor_type;location;lat;lon;timestamp;P1;durP1;ratioP1;P2;durP2;ratioP2
50547;SDS011;38013;48.810;8.818;2023-02-10T00:01:32;34.83;;;16.05;;
50547;SDS011;38013;48.810;8.818;2023-02-10T00:03:59;31.05;;;16.33;;
50547;SDS011;38013;48.810;8.818;2023-02-10T00:06:27;29.30;;;15.52;;
50547;SDS011;38013;48.810;8.818;2023-02-10T00:08:55;32.65;;;16.70;;
50547;SDS011;38013;48.810;8.818;2023-02-10T00:11:26;29.63;;;15.27;;
50547;SDS011;38013;48.810;8.818;2023-02-10T00:14:12;29.30;;;15.30;;
50547;SDS011;38013;48.810;8.818;2023-02-10T00:16:41;33.28;;;16.50;;
50547;SDS011;38013;48.810;8.818;2023-02-10T00:19:08;31.80;;;16.77;;
50547;SDS011;38013;48.810;8.818;2023-02-10T00:21:35;28.50;;;15.00;;
50547;SDS011;38013;48.810;8.818;2023-02-10T00:24:03;33.25;;;16.55;;
50547;SDS011;38013;48.810;8.818;2023-02-10T00:26:29;27.67;;;14.13;;
50547;SDS011;38013;48.810;8.818;2023-02-10T00:28:56;28.60;;;13.88;;
50547;SDS011;38013;48.810;8.818;2023-02-10T00:31:23;29.52;;;14.50;;
50547;SDS011;38013;48.810;8.818;2023-02-10T00:33:50;28.27;;;14.02;;
50547;SDS011;38013;48.810;8.818;2023-02-10T00:36:17;31.05;;;14.85;;
50547;SDS011;38013;48.810;8.818;2023-02-10T00:38:44;29.05;;;16.30;;
50547;SDS011;38013;48.810;8.818;2023-02-10T00:41:12;32.35;;;15.90;;
50547;SDS011;38013;48.810;8.818;2023-02-10T00:43:41;32.05;;;16.40;;
50547;SDS011;38013;48.810;8.818;2023-02-10T00:46:10;30.15;;;16.38;;
50547;SDS011;38013;48.810;8.818;2023-02-10T00:48:41;33.28;;;17.00;;
50547;SDS011;38013;48.810;8.818;2023-02-10T00:51:09;30.40;;;15.77;;
50547;SDS011;38013;48.810;8.818;2023-02-10T00:53:36;31.23;;;16.17;;
50547;SDS011;38013;48.810;8.818;2023-02-10T00:56:04;32.20;;;16.95;;
50547;SDS011;38013;48.810;8.818;2023-02-10T00:58:33;30.77;;;16.30;;
50547;SDS011;38013;48.810;8.818;2023-02-10T01:01:01;27.65;;;15.27;;
50547;SDS011;38013;48.810;8.818;2023-02-10T01:03:28;27.33;;;15.18;;
50547;SDS011;38013;48.810;8.818;2023-02-10T01:05:56;30.13;;;15.40;;
50547;SDS011;38013;48.810;8.818;2023-02-10T01:08:23;32.13;;;16.83;;
50547;SDS011;38013;48.810;8.818;2023-02-10T01:10:56;31.58;;;17.83;;
50547;SDS011;38013;48.810;8.818;2023-02-10T01:13:32;30.30;;;15.38;;
50547;SDS011;38013;48.810;8.818;2023-02-10T01:16:00;26.95;;;13.80;;
50547;SDS011;38013;48.810;8.818;2023-02-10T01:18:31;29.02;;;14.40;;
50547;SDS011;38013;48.810;8.818;2023-02-10T01:20:57;32.75;;;16.02;;
50547;SDS011;38013;48.810;8.818;2023-02-10T01:23:24;33.88;;;15.82;;
50547;SDS011;38013;48.810;8.818;2023-02-10T01:25:51;33.63;;;16.13;;
50547;SDS011;38013;48.810;8.818;2023-02-10T01:28:18;30.52;;;16.40;;
50547;SDS011;38013;48.810;8.818;2023-02-10T01:30:45;30.70;;;16.33;;
50547;SDS011;38013;48.810;8.818;2023-02-10T01:33:12;28.33;;;15.50;;
50547;SDS011;38013;48.810;8.818;2023-02-10T01:35:39;29.63;;;15.55;;
50547;SDS011;38013;48.810;8.818;2023-02-10T01:38:06;26.35;;;13.15;;
50547;SDS011;38013;48.810;8.818;2023-02-10T01:40:33;26.33;;;15.27;;
50547;SDS011;38013;48.810;8.818;2023-02-10T01:43:00;27.20;;;14.45;;
50547;SDS011;38013;48.810;8.818;2023-02-10T01:45:28;28.40;;;14.35;;
50547;SDS011;38013;48.810;8.818;2023-02-10T01:47:59;25.20;;;14.07;;
50547;SDS011;38013;48.810;8.818;2023-02-10T01:50:28;31.25;;;16.02;;
50547;SDS011;38013;48.810;8.818;2023-02-10T01:53:05;30.55;;;15.50;;
50547;SDS011;38013;48.810;8.818;2023-02-10T01:55:33;31.17;;;15.52;;
50547;SDS011;38013;48.810;8.818;2023-02-10T01:58:02;28.10;;;15.30;;
50547;SDS011;38013;48.810;8.818;2023-02-10T02:00:33;28.70;;;14.25;;
50547;SDS011;38013;48.810;8.818;2023-02-10T02:03:00;29.55;;;16.05;;
50547;SDS011;38013;48.810;8.818;2023-02-10T02:05:29;27.48;;;14.65;;
50547;SDS011;38013;48.810;8.818;2023-02-10T02:08:19;28.55;;;16.08;;
50547;SDS011;38013;48.810;8.818;2023-02-10T02:13:35;27.58;;;14.65;;
50547;SDS011;38013;48.810;8.818;2023-02-10T02:16:36;25.40;;;14.00;;
50547;SDS011;38013;48.810;8.818;2023-02-10T02:34:52;27.27;;;14.68;;
50547;SDS011;38013;48.810;8.818;2023-02-10T02:37:32;27.08;;;13.32;;
50547;SDS011;38013;48.810;8.818;2023-02-10T02:40:07;28.23;;;15.18;;
50547;SDS011;38013;48.810;8.818;2023-02-10T02:42:36;26.55;;;14.50;;
50547;SDS011;38013;48.810;8.818;2023-02-10T02:45:16;26.10;;;14.45;;
50547;SDS011;38013;48.810;8.818;2023-02-10T02:50:45;25.88;;;13.57;;
50547;SDS011;38013;48.810;8.818;2023-02-10T02:56:38;27.80;;;14.55;;
50547;SDS011;38013;48.810;8.818;2023-02-10T02:59:56;30.48;;;14.65;;
50547;SDS011;38013;48.810;8.818;2023-02-10T03:02:19;26.50;;;15.07;;
50547;SDS011;38013;48.810;8.818;2023-02-10T03:04:48;28.17;;;14.77;;
50547;SDS011;38013;48.810;8.818;2023-02-10T03:07:15;26.45;;;14.27;;
50547;SDS011;38013;48.810;8.818;2023-02-10T03:09:43;24.33;;;13.85;;
50547;SDS011;38013;48.810;8.818;2023-02-10T03:12:10;32.00;;;14.80;;
50547;SDS011;38013;48.810;8.818;2023-02-10T03:14:38;28.05;;;14.43;;
50547;SDS011;38013;48.810;8.818;2023-02-10T03:17:05;25.65;;;13.70;;
50547;SDS011;38013;48.810;8.818;2023-02-10T03:19:32;27.08;;;13.90;;
50547;SDS011;38013;48.810;8.818;2023-02-10T03:21:59;27.88;;;14.70;;
50547;SDS011;38013;48.810;8.818;2023-02-10T03:24:26;29.45;;;14.77;;
50547;SDS011;38013;48.810;8.818;2023-02-10T03:26:53;24.65;;;12.60;;
50547;SDS011;38013;48.810;8.818;2023-02-10T03:29:20;30.42;;;14.45;;
50547;SDS011;38013;48.810;8.818;2023-02-10T03:31:46;26.05;;;13.90;;
50547;SDS011;38013;48.810;8.818;2023-02-10T03:34:13;25.60;;;13.13;;
50547;SDS011;38013;48.810;8.818;2023-02-10T03:36:40;25.77;;;13.32;;
50547;SDS011;38013;48.810;8.818;2023-02-10T03:39:07;25.90;;;13.85;;
50547;SDS011;38013;48.810;8.818;2023-02-10T03:41:34;25.83;;;14.27;;
50547;SDS011;38013;48.810;8.818;2023-02-10T03:44:01;31.23;;;13.52;;
50547;SDS011;38013;48.810;8.818;2023-02-10T03:46:28;24.20;;;12.77;;
50547;SDS011;38013;48.810;8.818;2023-02-10T03:48:55;24.77;;;13.30;;
50547;SDS011;38013;48.810;8.818;2023-02-10T03:51:22;22.92;;;12.77;;
50547;SDS011;38013;48.810;8.818;2023-02-10T03:53:49;25.27;;;13.55;;
50547;SDS011;38013;48.810;8.818;2023-02-10T03:56:16;23.50;;;13.88;;
50547;SDS011;38013;48.810;8.818;2023-02-10T03:58:42;22.15;;;12.25;;
50547;SDS011;38013;48.810;8.818;2023-02-10T04:01:13;24.92;;;13.20;;
50547;SDS011;38013;48.810;8.818;2023-02-10T04:03:42;22.58;;;11.43;;
50547;SDS011;38013;48.810;8.818;2023-02-10T04:06:10;28.42;;;12.95;;
50547;SDS011;38013;48.810;8.818;2023-02-10T04:08:38;26.38;;;13.52;;
50547;SDS011;38013;48.810;8.818;2023-02-10T04:11:05;28.30;;;14.07;;
50547;SDS011;38013;48.810;8.818;2023-02-10T04:13:33;22.13;;;11.87;;
50547;SDS011;38013;48.810;8.818;2023-02-10T04:16:11;24.98;;;13.45;;
50547;SDS011;38013;48.810;8.818;2023-02-10T04:18:41;25.17;;;13.43;;
50547;SDS011;38013;48.810;8.818;2023-02-10T04:21:11;24.10;;;13.55;;
50547;SDS011;38013;48.810;8.818;2023-02-10T04:23:39;27.52;;;13.55;;
50547;SDS011;38013;48.810;8.818;2023-02-10T04:26:06;24.50;;;13.02;;
50547;SDS011;38013;48.810;8.818;2023-02-10T04:28:33;28.15;;;14.25;;
50547;SDS011;38013;48.810;8.818;2023-02-10T04:31:00;23.58;;;13.23;;
50547;SDS011;38013;48.810;8.818;2023-02-10T04:33:28;26.88;;;13.55;;
50547;SDS011;38013;48.810;8.818;2023-02-10T04:35:55;24.00;;;13.05;;
50547;SDS011;38013;48.810;8.818;2023-02-10T04:38:22;25.20;;;13.23;;
50547;SDS011;38013;48.810;8.818;2023-02-10T04:40:50;25.40;;;14.07;;
50547;SDS011;38013;48.810;8.818;2023-02-10T04:43:17;20.85;;;11.52;;
50547;SDS011;38013;48.810;8.818;2023-02-10T04:45:44;22.25;;;11.95;;
50547;SDS011;38013;48.810;8.818;2023-02-10T04:48:11;24.17;;;12.77;;
50547;SDS011;38013;48.810;8.818;2023-02-10T04:50:40;22.35;;;12.02;;
50547;SDS011;38013;48.810;8.818;2023-02-10T04:53:07;21.05;;;11.90;;
50547;SDS011;38013;48.810;8.818;2023-02-10T04:55:34;24.77;;;13.50;;
50547;SDS011;38013;48.810;8.818;2023-02-10T04:58:01;23.77;;;11.63;;
50547;SDS011;38013;48.810;8.818;2023-02-10T05:00:28;19.63;;;10.90;;
50547;SDS011;38013;48.810;8.818;2023-02-10T05:02:55;23.10;;;12.40;;
50547;SDS011;38013;48.810;8.818;2023-02-10T05:05:22;24.15;;;12.25;;
50547;SDS011;38013;48.810;8.818;2023-02-10T05:07:51;24.03;;;11.87;;
50547;SDS011;38013;48.810;8.818;2023-02-10T05:10:18;23.88;;;13.30;;
50547;SDS011;38013;48.810;8.818;2023-02-10T05:12:45;24.50;;;13.55;;
50547;SDS011;38013;48.810;8.818;2023-02-10T05:15:13;26.05;;;14.25;;
50547;SDS011;38013;48.810;8.818;2023-02-10T05:17:40;25.25;;;13.98;;
50547;SDS011;38013;48.810;8.818;2023-02-10T05:20:07;26.08;;;13.73;;
50547;SDS011;38013;48.810;8.818;2023-02-10T05:22:35;23.98;;;12.98;;
50547;SDS011;38013;48.810;8.818;2023-02-10T05:25:03;21.80;;;12.85;;
50547;SDS011;38013;48.810;8.818;2023-02-10T05:27:31;25.95;;;13.05;;
50547;SDS011;38013;48.810;8.818;2023-02-10T05:29:58;26.90;;;13.73;;
50547;SDS011;38013;48.810;8.818;2023-02-10T05:32:25;24.40;;;13.45;;
50547;SDS011;38013;48.810;8.818;2023-02-10T05:34:52;27.55;;;13.77;;
50547;SDS011;38013;48.810;8.818;2023-02-10T05:37:19;25.88;;;14.55;;
50547;SDS011;38013;48.810;8.818;2023-02-10T05:39:45;28.70;;;15.40;;
50547;SDS011;38013;48.810;8.818;2023-02-10T05:42:12;23.67;;;13.38;;
50547;SDS011;38013;48.810;8.818;2023-02-10T05:44:39;26.52;;;14.40;;
50547;SDS011;38013;48.810;8.818;2023-02-10T05:47:06;22.77;;;12.95;;
50547;SDS011;38013;48.810;8.818;2023-02-10T05:49:33;25.70;;;14.10;;
50547;SDS011;38013;48.810;8.818;2023-02-10T05:51:59;24.98;;;14.57;;
50547;SDS011;38013;48.810;8.818;2023-02-10T05:54:26;26.85;;;13.82;;
50547;SDS011;38013;48.810;8.818;2023-02-10T05:56:53;25.95;;;13.57;;
50547;SDS011;38013;48.810;8.818;2023-02-10T05:59:20;27.85;;;14.32;;
50547;SDS011;38013;48.810;8.818;2023-02-10T06:01:47;26.65;;;13.73;;
50547;SDS011;38013;48.810;8.818;2023-02-10T06:04:14;32.45;;;15.10;;
50547;SDS011;38013;48.810;8.818;2023-02-10T06:06:40;24.85;;;13.68;;
50547;SDS011;38013;48.810;8.818;2023-02-10T06:09:07;26.90;;;14.38;;
50547;SDS011;38013;48.810;8.818;2023-02-10T06:11:34;27.83;;;14.30;;
50547;SDS011;38013;48.810;8.818;2023-02-10T06:14:01;25.58;;;13.88;;
50547;SDS011;38013;48.810;8.818;2023-02-10T06:16:28;27.83;;;13.63;;
50547;SDS011;38013;48.810;8.818;2023-02-10T06:18:55;26.02;;;13.88;;
50547;SDS011;38013;48.810;8.818;2023-02-10T06:21:22;23.63;;;12.98;;
50547;SDS011;38013;48.810;8.818;2023-02-10T06:23:49;24.88;;;13.50;;
50547;SDS011;38013;48.810;8.818;2023-02-10T06:26:16;26.30;;;13.32;;
50547;SDS011;38013;48.810;8.818;2023-02-10T06:28:43;23.77;;;12.88;;
50547;SDS011;38013;48.810;8.818;2023-02-10T06:31:10;24.65;;;14.20;;
50547;SDS011;38013;48.810;8.818;2023-02-10T06:33:37;24.15;;;13.18;;
50547;SDS011;38013;48.810;8.818;2023-02-10T06:36:04;21.48;;;11.38;;
50547;SDS011;38013;48.810;8.818;2023-02-10T06:38:33;22.80;;;12.38;;
50547;SDS011;38013;48.810;8.818;2023-02-10T06:41:02;21.80;;;11.65;;
50547;SDS011;38013;48.810;8.818;2023-02-10T06:43:30;23.60;;;13.80;;
50547;SDS011;38013;48.810;8.818;2023-02-10T06:45:57;24.70;;;13.77;;
50547;SDS011;38013;48.810;8.818;2023-02-10T06:48:24;24.02;;;13.02;;
50547;SDS011;38013;48.810;8.818;2023-02-10T06:50:51;22.52;;;13.02;;
50547;SDS011;38013;48.810;8.818;2023-02-10T06:53:19;22.95;;;12.13;;
50547;SDS011;38013;48.810;8.818;2023-02-10T06:55:46;24.67;;;13.38;;
50547;SDS011;38013;48.810;8.818;2023-02-10T06:58:14;24.45;;;12.73;;
50547;SDS011;38013;48.810;8.818;2023-02-10T07:00:41;20.45;;;11.20;;
50547;SDS011;38013;48.810;8.818;2023-02-10T07:03:08;22.55;;;12.20;;
50547;SDS011;38013;48.810;8.818;2023-02-10T07:05:35;20.77;;;11.77;;
50547;SDS011;38013;48.810;8.818;2023-02-10T07:08:02;23.20;;;12.18;;
50547;SDS011;38013;48.810;8.818;2023-02-10T07:10:30;25.13;;;13.03;;
50547;SDS011;38013;48.810;8.818;2023-02-10T07:12:57;29.08;;;15.30;;
50547;SDS011;38013;48.810;8.818;2023-02-10T07:15:24;26.42;;;14.18;;
50547;SDS011;38013;48.810;8.818;2023-02-10T07:17:52;29.88;;;15.73;;
50547;SDS011;38013;48.810;8.818;2023-02-10T07:20:19;29.75;;;15.55;;
50547;SDS011;38013;48.810;8.818;2023-02-10T07:22:47;32.83;;;17.15;;
50547;SDS011;38013;48.810;8.818;2023-02-10T07:25:14;33.17;;;16.77;;
50547;SDS011;38013;48.810;8.818;2023-02-10T07:27:41;30.70;;;16.55;;
50547;SDS011;38013;48.810;8.818;2023-02-10T07:30:10;36.55;;;18.48;;
50547;SDS011;38013;48.810;8.818;2023-02-10T07:32:38;33.70;;;15.97;;
50547;SDS011;38013;48.810;8.818;2023-02-10T07:35:07;30.95;;;15.80;;
50547;SDS011;38013;48.810;8.818;2023-02-10T07:37:35;29.55;;;16.38;;
50547;SDS011;38013;48.810;8.818;2023-02-10T07:40:03;30.55;;;16.88;;
50547;SDS011;38013;48.810;8.818;2023-02-10T07:42:31;29.35;;;16.02;;
50547;SDS011;38013;48.810;8.818;2023-02-10T07:45:11;29.38;;;15.93;;
50547;SDS011;38013;48.810;8.818;2023-02-10T07:47:38;32.05;;;16.77;;
50547;SDS011;38013;48.810;8.818;2023-02-10T07:50:05;26.55;;;14.63;;
50547;SDS011;38013;48.810;8.818;2023-02-10T07:52:32;27.65;;;15.30;;
50547;SDS011;38013;48.810;8.818;2023-02-10T07:54:58;25.25;;;15.13;;
50547;SDS011;38013;48.810;8.818;2023-02-10T07:57:28;27.52;;;15.40;;
50547;SDS011;38013;48.810;8.818;2023-02-10T07:59:55;27.67;;;15.18;;
50547;SDS011;38013;48.810;8.818;2023-02-10T08:02:22;26.70;;;15.73;;
50547;SDS011;38013;48.810;8.818;2023-02-10T08:04:49;26.33;;;15.32;;
50547;SDS011;38013;48.810;8.818;2023-02-10T08:07:20;27.38;;;15.40;;
50547;SDS011;38013;48.810;8.818;2023-02-10T08:09:47;30.08;;;16.35;;
50547;SDS011;38013;48.810;8.818;2023-02-10T08:12:13;27.23;;;14.82;;
50547;SDS011;38013;48.810;8.818;2023-02-10T08:14:40;27.00;;;15.13;;
50547;SDS011;38013;48.810;8.818;2023-02-10T08:17:07;30.48;;;15.25;;
50547;SDS011;38013;48.810;8.818;2023-02-10T08:19:34;26.13;;;14.02;;
50547;SDS011;38013;48.810;8.818;2023-02-10T08:22:03;29.75;;;16.55;;
50547;SDS011;38013;48.810;8.818;2023-02-10T08:24:30;28.13;;;16.00;;
50547;SDS011;38013;48.810;8.818;2023-02-10T08:26:58;32.75;;;17.08;;
50547;SDS011;38013;48.810;8.818;2023-02-10T08:29:24;28.20;;;15.40;;
50547;SDS011;38013;48.810;8.818;2023-02-10T08:31:51;32.03;;;16.35;;
50547;SDS011;38013;48.810;8.818;2023-02-10T08:34:19;28.83;;;16.15;;
50547;SDS011;38013;48.810;8.818;2023-02-10T08:36:47;25.95;;;14.98;;
50547;SDS011;38013;48.810;8.818;2023-02-10T08:39:14;29.90;;;15.23;;
50547;SDS011;38013;48.810;8.818;2023-02-10T08:41:41;27.45;;;15.85;;
50547;SDS011;38013;48.810;8.818;2023-02-10T08:44:09;27.73;;;16.17;;
50547;SDS011;38013;48.810;8.818;2023-02-10T08:46:38;30.45;;;15.25;;
50547;SDS011;38013;48.810;8.818;2023-02-10T08:49:05;31.38;;;16.45;;
50547;SDS011;38013;48.810;8.818;2023-02-10T08:51:33;26.67;;;15.00;;
50547;SDS011;38013;48.810;8.818;2023-02-10T08:54:00;29.50;;;16.50;;
50547;SDS011;38013;48.810;8.818;2023-02-10T08:56:27;32.25;;;16.35;;
50547;SDS011;38013;48.810;8.818;2023-02-10T08:58:54;32.72;;;16.65;;
50547;SDS011;38013;48.810;8.818;2023-02-10T09:01:22;28.17;;;16.15;;
50547;SDS011;38013;48.810;8.818;2023-02-10T09:03:55;32.20;;;16.08;;
50547;SDS011;38013;48.810;8.818;2023-02-10T09:06:27;33.03;;;16.40;;
50547;SDS011;38013;48.810;8.818;2023-02-10T09:08:59;29.48;;;16.08;;
50547;SDS011;38013;48.810;8.818;2023-02-10T09:11:26;29.35;;;15.52;;
50547;SDS011;38013;48.810;8.818;2023-02-10T09:13:53;27.77;;;15.20;;
50547;SDS011;38013;48.810;8.818;2023-02-10T09:16:20;26.20;;;15.73;;
50547;SDS011;38013;48.810;8.818;2023-02-10T09:18:47;27.02;;;15.43;;
50547;SDS011;38013;48.810;8.818;2023-02-10T09:21:13;28.20;;;15.43;;
50547;SDS011;38013;48.810;8.818;2023-02-10T09:23:40;26.83;;;14.45;;
50547;SDS011;38013;48.810;8.818;2023-02-10T09:26:10;29.83;;;15.32;;
50547;SDS011;38013;48.810;8.818;2023-02-10T09:28:37;27.75;;;15.02;;
50547;SDS011;38013;48.810;8.818;2023-02-10T09:31:07;26.80;;;15.50;;
50547;SDS011;38013;48.810;8.818;2023-02-10T09:33:35;30.13;;;16.35;;
50547;SDS011;38013;48.810;8.818;2023-02-10T09:36:05;31.42;;;15.90;;
50547;SDS011;38013;48.810;8.818;2023-02-10T09:38:36;27.58;;;16.05;;
50547;SDS011;38013;48.810;8.818;2023-02-10T09:41:11;28.60;;;15.52;;
50547;SDS011;38013;48.810;8.818;2023-02-10T09:49:47;27.08;;;15.52;;
50547;SDS011;38013;48.810;8.818;2023-02-10T09:53:15;26.60;;;14.82;;
50547;SDS011;38013;48.810;8.818;2023-02-10T09:56:03;26.00;;;15.45;;
50547;SDS011;38013;48.810;8.818;2023-02-10T09:58:32;28.13;;;14.98;;
50547;SDS011;38013;48.810;8.818;2023-02-10T10:01:14;25.40;;;14.65;;
50547;SDS011;38013;48.810;8.818;2023-02-10T10:03:59;26.55;;;14.52;;
50547;SDS011;38013;48.810;8.818;2023-02-10T10:06:36;27.23;;;14.70;;
50547;SDS011;38013;48.810;8.818;2023-02-10T10:09:41;26.33;;;15.00;;
50547;SDS011;38013;48.810;8.818;2023-02-10T10:12:16;25.65;;;14.57;;
50547;SDS011;38013;48.810;8.818;2023-02-10T10:14:45;27.27;;;14.25;;
50547;SDS011;38013;48.810;8.818;2023-02-10T10:26:10;23.25;;;13.73;;
50547;SDS011;38013;48.810;8.818;2023-02-10T10:34:41;26.88;;;14.15;;
50547;SDS011;38013;48.810;8.818;2023-02-10T10:37:18;25.70;;;14.40;;
50547;SDS011;38013;48.810;8.818;2023-02-10T10:40:00;23.73;;;13.07;;
50547;SDS011;38013;48.810;8.818;2023-02-10T10:42:40;20.58;;;11.68;;
50547;SDS011;38013;48.810;8.818;2023-02-10T10:45:16;22.55;;;12.35;;
50547;SDS011;38013;48.810;8.818;2023-02-10T10:48:04;20.92;;;11.80;;
50547;SDS011;38013;48.810;8.818;2023-02-10T10:50:42;20.60;;;12.20;;
50547;SDS011;38013;48.810;8.818;2023-02-10T10:53:53;21.77;;;11.77;;
50547;SDS011;38013;48.810;8.818;2023-02-10T10:56:13;22.30;;;12.60;;
50547;SDS011;38013;48.810;8.818;2023-02-10T10:58:58;21.63;;;12.32;;
50547;SDS011;38013;48.810;8.818;2023-02-10T11:01:33;23.75;;;12.10;;
50547;SDS011;38013;48.810;8.818;2023-02-10T11:04:15;21.33;;;11.82;;
50547;SDS011;38013;48.810;8.818;2023-02-10T11:09:24;24.38;;;11.95;;
50547;SDS011;38013;48.810;8.818;2023-02-10T11:12:06;22.25;;;11.60;;
50547;SDS011;38013;48.810;8.818;2023-02-10T11:14:44;25.08;;;11.65;;
50547;SDS011;38013;48.810;8.818;2023-02-10T11:17:18;20.80;;;11.95;;
50547;SDS011;38013;48.810;8.818;2023-02-10T11:20:05;20.23;;;11.55;;
50547;SDS011;38013;48.810;8.818;2023-02-10T11:25:31;21.05;;;11.88;;
50547;SDS011;38013;48.810;8.818;2023-02-10T11:28:02;19.92;;;11.30;;
50547;SDS011;38013;48.810;8.818;2023-02-10T11:30:36;19.70;;;11.60;;
50547;SDS011;38013;48.810;8.818;2023-02-10T11:33:06;18.80;;;11.10;;
50547;SDS011;38013;48.810;8.818;2023-02-10T11:35:49;17.95;;;10.95;;
50547;SDS011;38013;48.810;8.818;2023-02-10T11:38:25;19.00;;;11.40;;
50547;SDS011;38013;48.810;8.818;2023-02-10T11:40:57;19.55;;;11.80;;
50547;SDS011;38013;48.810;8.818;2023-02-10T11:43:32;19.73;;;11.57;;
50547;SDS011;38013;48.810;8.818;2023-02-10T11:46:23;20.92;;;11.60;;
50547;SDS011;38013;48.810;8.818;2023-02-10T11:49:00;20.65;;;11.48;;
50547;SDS011;38013;48.810;8.818;2023-02-10T11:51:31;20.63;;;11.88;;
50547;SDS011;38013;48.810;8.818;2023-02-10T11:53:58;20.67;;;11.40;;
50547;SDS011;38013;48.810;8.818;2023-02-10T11:59:59;19.40;;;11.23;;
50547;SDS011;38013;48.810;8.818;2023-02-10T12:05:57;20.20;;;12.00;;
50547;SDS011;38013;48.810;8.818;2023-02-10T12:14:13;22.58;;;12.95;;
50547;SDS011;38013;48.810;8.818;2023-02-10T12:20:21;21.42;;;12.57;;
50547;SDS011;38013;48.810;8.818;2023-02-10T12:26:13;21.70;;;12.27;;
50547;SDS011;38013;48.810;8.818;2023-02-10T12:46:55;20.92;;;13.32;;
50547;SDS011;38013;48.810;8.818;2023-02-10T12:50:04;17.35;;;11.85;;
50547;SDS011;38013;48.810;8.818;2023-02-10T12:52:49;20.00;;;12.40;;
50547;SDS011;38013;48.810;8.818;2023-02-10T12:55:42;19.08;;;13.15;;
50547;SDS011;38013;48.810;8.818;2023-02-10T12:58:41;21.73;;;14.70;;
50547;SDS011;38013;48.810;8.818;2023-02-10T13:06:45;23.38;;;14.80;;
50547;SDS011;38013;48.810;8.818;2023-02-10T13:12:21;24.88;;;15.45;;
50547;SDS011;38013;48.810;8.818;2023-02-10T13:14:57;23.40;;;14.65;;
50547;SDS011;38013;48.810;8.818;2023-02-10T13:17:51;24.55;;;14.63;;
50547;SDS011;38013;48.810;8.818;2023-02-10T13:23:06;24.15;;;15.00;;
50547;SDS011;38013;48.810;8.818;2023-02-10T13:29:17;26.08;;;16.13;;
50547;SDS011;38013;48.810;8.818;2023-02-10T13:31:58;23.42;;;15.52;;
50547;SDS011;38013;48.810;8.818;2023-02-10T13:34:54;22.27;;;13.60;;
50547;SDS011;38013;48.810;8.818;2023-02-10T13:37:30;22.88;;;15.30;;
50547;SDS011;38013;48.810;8.818;2023-02-10T13:40:15;22.55;;;15.70;;
50547;SDS011;38013;48.810;8.818;2023-02-10T13:42:55;23.20;;;15.57;;
50547;SDS011;38013;48.810;8.818;2023-02-10T13:45:31;23.20;;;15.65;;
50547;SDS011;38013;48.810;8.818;2023-02-10T13:48:00;24.20;;;16.15;;
50547;SDS011;38013;48.810;8.818;2023-02-10T13:50:41;23.98;;;15.60;;
50547;SDS011;38013;48.810;8.818;2023-02-10T13:58:48;23.15;;;15.48;;
50547;SDS011;38013;48.810;8.818;2023-02-10T14:01:33;24.55;;;13.73;;
50547;SDS011;38013;48.810;8.818;2023-02-10T14:06:47;19.73;;;12.30;;
50547;SDS011;38013;48.810;8.818;2023-02-10T14:11:56;21.85;;;12.38;;
50547;SDS011;38013;48.810;8.818;2023-02-10T14:17:05;18.85;;;11.40;;
50547;SDS011;38013;48.810;8.818;2023-02-10T14:19:44;17.80;;;11.10;;
50547;SDS011;38013;48.810;8.818;2023-02-10T14:25:27;19.00;;;11.05;;
50547;SDS011;38013;48.810;8.818;2023-02-10T14:28:01;21.17;;;12.18;;
50547;SDS011;38013;48.810;8.818;2023-02-10T14:30:37;21.07;;;12.13;;
50547;SDS011;38013;48.810;8.818;2023-02-10T14:35:58;20.40;;;12.13;;
50547;SDS011;38013;48.810;8.818;2023-02-10T14:38:28;22.17;;;11.70;;
50547;SDS011;38013;48.810;8.818;2023-02-10T14:40:58;20.52;;;11.68;;
50547;SDS011;38013;48.810;8.818;2023-02-10T14:43:40;20.13;;;10.55;;
50547;SDS011;38013;48.810;8.818;2023-02-10T14:46:07;20.80;;;11.23;;
50547;SDS011;38013;48.810;8.818;2023-02-10T14:48:45;22.90;;;11.90;;
50547;SDS011;38013;48.810;8.818;2023-02-10T14:51:23;24.13;;;11.77;;
50547;SDS011;38013;48.810;8.818;2023-02-10T14:53:51;18.85;;;10.88;;
50547;SDS011;38013;48.810;8.818;2023-02-10T14:56:21;19.50;;;11.25;;
50547;SDS011;38013;48.810;8.818;2023-02-10T14:58:53;20.48;;;10.80;;
50547;SDS011;38013;48.810;8.818;2023-02-10T15:01:32;20.23;;;11.55;;
50547;SDS011;38013;48.810;8.818;2023-02-10T15:04:00;19.77;;;11.30;;
50547;SDS011;38013;48.810;8.818;2023-02-10T15:06:30;24.75;;;11.85;;
50547;SDS011;38013;48.810;8.818;2023-02-10T15:09:02;20.88;;;10.95;;
50547;SDS011;38013;48.810;8.818;2023-02-10T15:11:43;21.52;;;11.85;;
50547;SDS011;38013;48.810;8.818;2023-02-10T15:17:19;25.08;;;12.38;;
50547;SDS011;38013;48.810;8.818;2023-02-10T15:27:59;20.65;;;10.93;;
50547;SDS011;38013;48.810;8.818;2023-02-10T15:30:57;21.00;;;12.23;;
50547;SDS011;38013;48.810;8.818;2023-02-10T15:36:26;20.05;;;11.63;;
50547;SDS011;38013;48.810;8.818;2023-02-10T15:39:03;19.23;;;11.60;;
50547;SDS011;38013;48.810;8.818;2023-02-10T15:46:49;18.90;;;10.82;;
50547;SDS011;38013;48.810;8.818;2023-02-10T15:49:20;16.27;;;9.75;;
50547;SDS011;38013;48.810;8.818;2023-02-10T15:51:52;17.85;;;10.32;;
50547;SDS011;38013;48.810;8.818;2023-02-10T15:54:21;21.15;;;10.98;;
50547;SDS011;38013;48.810;8.818;2023-02-10T15:56:55;18.17;;;10.68;;
50547;SDS011;38013;48.810;8.818;2023-02-10T15:59:22;21.33;;;10.98;;
50547;SDS011;38013;48.810;8.818;2023-02-10T16:01:54;18.52;;;10.00;;
50547;SDS011;38013;48.810;8.818;2023-02-10T16:04:22;21.27;;;11.03;;
50547;SDS011;38013;48.810;8.818;2023-02-10T16:06:50;22.83;;;11.07;;
50547;SDS011;38013;48.810;8.818;2023-02-10T16:09:17;20.48;;;11.02;;
50547;SDS011;38013;48.810;8.818;2023-02-10T16:11:44;22.02;;;11.43;;
50547;SDS011;38013;48.810;8.818;2023-02-10T16:14:11;23.77;;;11.23;;
50547;SDS011;38013;48.810;8.818;2023-02-10T16:16:40;21.83;;;11.70;;
50547;SDS011;38013;48.810;8.818;2023-02-10T16:19:15;22.95;;;11.02;;
50547;SDS011;38013;48.810;8.818;2023-02-10T16:21:42;21.48;;;11.13;;
50547;SDS011;38013;48.810;8.818;2023-02-10T16:24:12;22.02;;;11.57;;
50547;SDS011;38013;48.810;8.818;2023-02-10T16:26:42;23.65;;;13.15;;
50547;SDS011;38013;48.810;8.818;2023-02-10T16:29:15;22.05;;;11.15;;
50547;SDS011;38013;48.810;8.818;2023-02-10T16:31:44;18.40;;;10.48;;
50547;SDS011;38013;48.810;8.818;2023-02-10T16:34:12;30.85;;;17.45;;
50547;SDS011;38013;48.810;8.818;2023-02-10T16:36:39;24.42;;;12.52;;
50547;SDS011;38013;48.810;8.818;2023-02-10T16:39:11;25.42;;;12.25;;
50547;SDS011;38013;48.810;8.818;2023-02-10T16:41:46;18.90;;;10.15;;
50547;SDS011;38013;48.810;8.818;2023-02-10T16:44:15;20.33;;;10.55;;
50547;SDS011;38013;48.810;8.818;2023-02-10T16:46:42;19.00;;;9.88;;
50547;SDS011;38013;48.810;8.818;2023-02-10T16:49:13;19.67;;;10.85;;
50547;SDS011;38013;48.810;8.818;2023-02-10T16:51:42;19.08;;;10.32;;
50547;SDS011;38013;48.810;8.818;2023-02-10T16:54:09;19.17;;;11.48;;
50547;SDS011;38013;48.810;8.818;2023-02-10T16:56:37;19.02;;;9.63;;
50547;SDS011;38013;48.810;8.818;2023-02-10T16:59:07;18.63;;;10.40;;
50547;SDS011;38013;48.810;8.818;2023-02-10T17:01:39;18.90;;;10.07;;
50547;SDS011;38013;48.810;8.818;2023-02-10T17:04:07;20.00;;;10.18;;
50547;SDS011;38013;48.810;8.818;2023-02-10T17:06:35;19.02;;;10.75;;